Latest Coastal Weather Observations for Rosslyn Bay Harbour

IDQ60701

Issued at 11:55 pm EST Thursday 24 April 2014 (issued every 10 minutes, with the page automatically refreshed every 10 minutes)

About coastal observations | Map of coastal stations | Coastal observations for QLD | Marine services | Other Formats
Station Details ID: 033208 Name: ROSSLYN BAY NTC AWS Lat: -23.16 Lon: 150.79 Height: 0.0 m
Data from the previous 72 hours. | See also: Recent months for locations in Queensland
Date/Time
EST
Temp

°C
Wind Pressure Rain
since 9am
mm
Weather Cloud Vis
km
Sea
Height
m
Swell
Dir
 
Speed
knots
Gust
knots
hPa Trend Height
m
Period
s
Dir
24/11:30pm 24.4 SSW 5 9 1014.7 - - - - - - - - -
24/11:00pm 24.3 S 4 7 1014.9 - - - - - - - - -
24/10:30pm 24.4 SSW 4 7 1015.0 - - - - - - - - -
24/10:00pm 24.4 S 4 8 1015.1 - - - - - - - - -
24/09:30pm 24.3 S 3 6 1015.2 - - - - - - - - -
24/09:00pm 24.2 S 4 8 1015.0 - - - - - - - - -
24/08:30pm 24.3 S 4 6 1014.9 - - - - - - - - -
24/08:00pm 24.4 SSW 3 7 1014.8 - - - - - - - - -
24/07:30pm 24.3 S 3 6 1014.6 - - - - - - - - -
24/07:00pm 24.2 S 2 5 1014.3 - - - - - - - - -
24/06:30pm 24.1 SW 2 5 1014.0 - - - - - - - - -
24/06:00pm 24.0 S 3 7 1013.5 - - - - - - - - -
24/05:30pm 24.0 SSW 3 7 1013.3 - - - - - - - - -
24/05:00pm 24.0 S 4 9 1013.2 - - - - - - - - -
24/04:30pm 24.5 SSW 3 7 1013.0 - - - - - - - - -
24/04:00pm 24.4 SSW 3 7 1012.8 - - - - - - - - -
24/03:30pm 24.3 SSW 3 7 1012.7 - - - - - - - - -
24/03:00pm 24.0 S 5 9 1012.7 - - - - - - - - -
24/02:30pm 24.5 SSW 2 6 1012.8 - - - - - - - - -
24/02:00pm 24.4 S 8 12 1012.8 - - - - - - - - -
24/01:30pm 24.1 S 4 8 1013.1 - - - - - - - - -
24/01:00pm 23.5 S 8 11 1013.4 - - - - - - - - -
24/12:30pm 23.9 S 6 10 1014.0 - - - - - - - - -
24/12:00pm 23.7 S 4 8 1014.4 - - - - - - - - -
24/11:30am 23.3 S 5 9 1014.8 - - - - - - - - -
24/11:00am 23.2 S 5 9 1015.2 - - - - - - - - -
24/10:30am 22.6 SSW 4 6 1015.8 - - - - - - - - -
24/10:00am 22.2 SSW 3 5 1016.0 - - - - - - - - -
24/09:30am 21.6 SSW 4 8 1016.2 - - - - - - - - -
24/09:00am 22.0 SW 5 14 1015.5 - - - - - - - - -
24/08:30am 21.2 S 4 10 1015.7 - - - - - - - - -
24/08:00am 21.4 SSW 7 10 1016.2 - - - - - - - - -
24/07:30am 21.8 S 4 8 1015.4 - - - - - - - - -
24/07:00am 21.8 CALM 0 1 1014.6 - - - - - - - - -
24/06:30am 21.4 SSW 5 8 1014.7 - - - - - - - - -
24/06:00am 21.3 SSW 1 3 1014.1 - - - - - - - - -
24/05:30am 21.3 S 3 6 1013.9 - - - - - - - - -
24/05:00am 21.7 S 3 6 1013.6 - - - - - - - - -
24/04:30am 21.9 SSE 2 4 1014.1 - - - - - - - - -
24/04:00am 23.2 NNW 2 6 1013.6 - - - - - - - - -
24/03:30am 23.1 WSW 1 4 1014.0 - - - - - - - - -
24/03:00am 22.7 S 2 4 1014.3 - - - - - - - - -
24/02:30am 22.8 ENE 6 11 1013.7 - - - - - - - - -
24/02:00am 23.1 W 2 6 1014.5 - - - - - - - - -
24/01:30am 22.9 SSW 2 6 1014.7 - - - - - - - - -
24/01:00am 22.9 WSW 3 8 1015.0 - - - - - - - - -
24/12:30am 22.6 WSW 2 5 1015.7 - - - - - - - - -
24/12:00am 22.5 WSW 2 6 1016.0 - - - - - - - - -
 
Date/Time
EST
Temp

°C
Wind Pressure Rain
since 9am
mm
Weather Cloud Vis
km
Sea
Height
m
Swell
Dir
 
Speed
knots
Gust
knots
hPa Trend Height
m
Period
s
Dir
23/11:30pm 22.8 SSW 2 5 1016.6 - - - - - - - - -
23/11:00pm 23.1 E 2 6 1016.7 - - - - - - - - -
23/10:30pm 23.2 WSW 3 8 1016.7 - - - - - - - - -
23/10:00pm 23.2 WSW 3 6 1017.0 - - - - - - - - -
23/09:30pm 23.4 SSW 3 7 1016.9 - - - - - - - - -
23/09:00pm 23.3 S 3 8 1016.5 - - - - - - - - -
23/08:30pm 23.2 S 3 8 1016.6 - - - - - - - - -
23/08:00pm 23.1 SSW 4 9 1016.3 - - - - - - - - -
23/07:30pm 23.0 WSW 3 9 1016.0 - - - - - - - - -
23/07:00pm 23.0 SSW 3 9 1015.8 - - - - - - - - -
23/06:30pm 22.7 SW 2 6 1015.3 - - - - - - - - -
23/06:00pm 22.4 SW 3 6 1015.0 - - - - - - - - -
23/05:30pm 22.6 NW 4 10 1014.7 - - - - - - - - -
23/05:00pm 22.4 SW 4 14 1015.1 - - - - - - - - -
23/04:30pm 22.6 S 4 9 1014.6 - - - - - - - - -
23/04:00pm 23.1 S 3 7 1014.7 - - - - - - - - -
23/03:30pm 23.2 ENE 3 8 1014.6 - - - - - - - - -
23/03:00pm 23.5 E 2 7 1014.7 - - - - - - - - -
23/02:30pm 23.7 WSW 2 8 1014.1 - - - - - - - - -
23/02:00pm 23.7 S 2 3 1014.4 - - - - - - - - -
23/01:30pm 23.1 SSW 2 4 1014.8 - - - - - - - - -
23/01:00pm 22.7 SSW 3 5 1015.3 - - - - - - - - -
23/12:30pm 22.7 S 3 7 1015.8 - - - - - - - - -
23/12:00pm 22.2 S 7 13 1016.2 - - - - - - - - -
23/11:30am 23.5 S 6 8 1016.4 - - - - - - - - -
23/11:00am 23.1 S 4 7 1016.6 - - - - - - - - -
23/10:30am 22.6 S 5 8 1017.0 - - - - - - - - -
23/10:00am 22.5 S 3 7 1017.2 - - - - - - - - -
23/09:30am 23.8 S 5 11 1017.4 - - - - - - - - -
23/09:00am 23.5 S 6 10 1017.1 - - - - - - - - -
23/08:30am 22.8 SSW 6 10 1017.1 - - - - - - - - -
23/08:00am 22.6 SSW 5 8 1017.1 - - - - - - - - -
23/07:30am 22.6 SW 3 6 1017.0 - - - - - - - - -
23/07:00am 22.4 S 5 11 1016.7 - - - - - - - - -
23/06:30am 25.0 S 4 8 1016.1 - - - - - - - - -
23/06:00am 25.0 S 4 7 1016.3 - - - - - - - - -
23/05:30am 25.1 S 6 11 1016.1 - - - - - - - - -
23/05:00am 24.9 S 4 9 1015.7 - - - - - - - - -
23/04:30am 24.9 S 3 10 1015.9 - - - - - - - - -
23/04:00am 24.9 SSW 3 6 1016.3 - - - - - - - - -
23/03:30am 24.8 SSW 2 7 1016.1 - - - - - - - - -
23/03:00am 24.8 SSW 3 9 1015.8 - - - - - - - - -
23/02:30am 24.8 SSW 2 7 1015.8 - - - - - - - - -
23/02:00am 24.8 S 3 7 1016.2 - - - - - - - - -
23/01:30am 24.7 S 4 9 1016.3 - - - - - - - - -
23/01:00am 24.7 SSW 3 10 1016.5 - - - - - - - - -
23/12:30am 24.9 SW 4 8 1017.5 - - - - - - - - -
23/12:00am 24.5 SSW 3 9 1017.3 - - - - - - - - -
 
Date/Time
EST
Temp

°C
Wind Pressure Rain
since 9am
mm
Weather Cloud Vis
km
Sea
Height
m
Swell
Dir
 
Speed
knots
Gust
knots
hPa Trend Height
m
Period
s
Dir
22/11:30pm 25.0 SSW 3 7 1017.7 - - - - - - - - -
22/11:00pm 25.0 SW 3 7 1017.1 - - - - - - - - -
22/10:30pm 25.0 SSW 2 9 1017.5 - - - - - - - - -
22/10:00pm 24.9 S 3 7 1017.7 - - - - - - - - -
22/09:30pm 25.0 S 3 5 1018.1 - - - - - - - - -
22/09:00pm 25.0 S 3 6 1018.2 - - - - - - - - -
22/08:30pm 24.8 SSW 3 6 1018.1 - - - - - - - - -
22/08:00pm 24.9 SW 3 7 1018.0 - - - - - - - - -
22/07:30pm 24.9 SSW 3 9 1017.7 - - - - - - - - -
22/07:00pm 24.9 SW 3 9 1017.5 - - - - - - - - -
22/06:30pm 25.0 SSW 4 10 1017.1 - - - - - - - - -
22/06:00pm 25.1 SSW 3 8 1017.0 - - - - - - - - -
22/05:30pm 25.1 SSW 3 7 1017.1 - - - - - - - - -
22/05:00pm 25.3 W 4 9 1016.9 - - - - - - - - -
22/04:30pm 25.7 SSW 4 10 1016.6 - - - - - - - - -
22/04:00pm 25.8 S 4 8 1016.5 - - - - - - - - -
22/03:30pm 25.8 S 4 9 1016.5 - - - - - - - - -
22/03:00pm 26.0 S 3 8 1016.7 - - - - - - - - -
22/02:30pm 26.0 S 4 8 1016.9 - - - - - - - - -
22/02:00pm 26.2 WSW 4 8 1017.0 - - - - - - - - -
22/01:30pm 26.5 E 3 9 1017.2 - - - - - - - - -
22/01:00pm 25.9 WSW 3 11 1017.5 - - - - - - - - -
22/12:30pm 25.9 WSW 3 7 1017.7 - - - - - - - - -
22/12:00pm 26.3 SW 3 7 1018.2 - - - - - - - - -
22/11:30am 25.9 W 4 10 1018.5 - - - - - - - - -
22/11:00am 25.3 WSW 4 10 1018.9 - - - - - - - - -
22/10:30am 24.0 S 7 12 1019.3 - - - - - - - - -
22/10:00am 23.8 S 7 13 1019.5 - - - - - - - - -
22/09:30am 23.1 S 3 8 1019.6 - - - - - - - - -
22/09:00am 22.9 S 5 9 1019.5 - - - - - - - - -
22/08:30am 22.2 SSW 5 10 1019.4 - - - - - - - - -
22/08:00am 20.8 SSW 4 6 1019.2 - - - - - - - - -
22/07:30am 19.6 SSW 6 9 1019.0 - - - - - - - - -
22/07:00am 19.2 S 5 8 1018.9 - - - - - - - - -
22/06:30am 19.2 S 3 6 1018.6 - - - - - - - - -
22/06:00am 19.5 SSW 3 5 1018.5 - - - - - - - - -
22/05:30am 19.7 SSW 3 5 1018.3 - - - - - - - - -
22/05:00am 19.9 SSW 5 8 1018.3 - - - - - - - - -
22/04:30am 24.3 S 4 7 1017.9 - - - - - - - - -
22/04:00am 24.4 S 6 10 1017.8 - - - - - - - - -
22/03:30am 24.4 S 5 8 1017.8 - - - - - - - - -
22/03:00am 24.4 SSW 4 8 1017.8 - - - - - - - - -
22/02:30am 24.4 S 5 8 1018.0 - - - - - - - - -
22/02:00am 24.4 SW 3 8 1018.2 - - - - - - - - -
22/01:30am 24.4 S 4 9 1018.5 - - - - - - - - -
22/01:00am 24.5 SW 3 8 1018.8 - - - - - - - - -
22/12:30am 24.6 SSW 3 9 1018.9 - - - - - - - - -
22/12:00am 24.6 WSW 3 7 1019.1 - - - - - - - - -

Other Formats:

Comma delimited format used in spreadsheet applications
http://www.bom.gov.au/fwo/IDQ60701/IDQ60701.95298.axf

JavaScript Object Notation format (JSON) in row-major order
http://www.bom.gov.au/fwo/IDQ60701/IDQ60701.95298.json